sensor_id;sensor_type;location;lat;lon;timestamp;P1;durP1;ratioP1;P2;durP2;ratioP2
8714;SDS011;4394;51.208;8.904;2023-09-07T00:00:29;6.63;;;4.20;;
8714;SDS011;4394;51.208;8.904;2023-09-07T00:03:17;4.20;;;3.80;;
8714;SDS011;4394;51.208;8.904;2023-09-07T00:06:06;5.35;;;4.78;;
8714;SDS011;4394;51.208;8.904;2023-09-07T00:08:54;7.50;;;3.87;;
8714;SDS011;4394;51.208;8.904;2023-09-07T00:11:43;4.20;;;3.77;;
8714;SDS011;4394;51.208;8.904;2023-09-07T00:14:32;5.53;;;4.10;;
8714;SDS011;4394;51.208;8.904;2023-09-07T00:17:20;4.47;;;3.43;;
8714;SDS011;4394;51.208;8.904;2023-09-07T00:20:08;4.73;;;4.13;;
8714;SDS011;4394;51.208;8.904;2023-09-07T00:22:59;5.07;;;4.23;;
8714;SDS011;4394;51.208;8.904;2023-09-07T00:25:47;6.50;;;4.37;;
8714;SDS011;4394;51.208;8.904;2023-09-07T00:28:36;6.37;;;4.23;;
8714;SDS011;4394;51.208;8.904;2023-09-07T00:31:24;5.23;;;4.33;;
8714;SDS011;4394;51.208;8.904;2023-09-07T00:34:12;5.77;;;4.40;;
8714;SDS011;4394;51.208;8.904;2023-09-07T00:37:00;4.67;;;4.20;;
8714;SDS011;4394;51.208;8.904;2023-09-07T00:39:50;6.53;;;4.50;;
8714;SDS011;4394;51.208;8.904;2023-09-07T00:42:39;5.03;;;4.53;;
8714;SDS011;4394;51.208;8.904;2023-09-07T00:45:27;4.03;;;3.63;;
8714;SDS011;4394;51.208;8.904;2023-09-07T00:48:15;4.93;;;4.40;;
8714;SDS011;4394;51.208;8.904;2023-09-07T00:51:04;4.60;;;4.20;;
8714;SDS011;4394;51.208;8.904;2023-09-07T00:53:53;7.00;;;4.60;;
8714;SDS011;4394;51.208;8.904;2023-09-07T00:56:42;4.97;;;4.30;;
8714;SDS011;4394;51.208;8.904;2023-09-07T00:59:31;5.57;;;4.50;;
8714;SDS011;4394;51.208;8.904;2023-09-07T01:02:19;8.37;;;4.43;;
8714;SDS011;4394;51.208;8.904;2023-09-07T01:05:08;5.20;;;4.40;;
8714;SDS011;4394;51.208;8.904;2023-09-07T01:07:57;5.47;;;4.40;;
8714;SDS011;4394;51.208;8.904;2023-09-07T01:10:51;5.30;;;4.50;;
8714;SDS011;4394;51.208;8.904;2023-09-07T01:13:41;5.43;;;4.50;;
8714;SDS011;4394;51.208;8.904;2023-09-07T01:16:29;4.93;;;4.40;;
8714;SDS011;4394;51.208;8.904;2023-09-07T01:19:20;5.50;;;4.37;;
8714;SDS011;4394;51.208;8.904;2023-09-07T01:22:10;7.43;;;4.57;;
8714;SDS011;4394;51.208;8.904;2023-09-07T01:24:59;4.40;;;3.93;;
8714;SDS011;4394;51.208;8.904;2023-09-07T01:27:51;5.83;;;4.07;;
8714;SDS011;4394;51.208;8.904;2023-09-07T01:30:39;6.43;;;4.80;;
8714;SDS011;4394;51.208;8.904;2023-09-07T01:33:28;6.07;;;4.70;;
8714;SDS011;4394;51.208;8.904;2023-09-07T01:36:16;6.20;;;4.93;;
8714;SDS011;4394;51.208;8.904;2023-09-07T01:39:06;5.93;;;4.70;;
8714;SDS011;4394;51.208;8.904;2023-09-07T01:41:55;6.90;;;4.30;;
8714;SDS011;4394;51.208;8.904;2023-09-07T01:44:43;5.10;;;4.30;;
8714;SDS011;4394;51.208;8.904;2023-09-07T01:47:31;6.03;;;4.30;;
8714;SDS011;4394;51.208;8.904;2023-09-07T01:50:20;5.43;;;4.70;;
8714;SDS011;4394;51.208;8.904;2023-09-07T01:53:08;6.37;;;4.87;;
8714;SDS011;4394;51.208;8.904;2023-09-07T01:55:57;7.47;;;4.33;;
8714;SDS011;4394;51.208;8.904;2023-09-07T01:58:46;5.67;;;4.33;;
8714;SDS011;4394;51.208;8.904;2023-09-07T02:01:34;4.97;;;4.47;;
8714;SDS011;4394;51.208;8.904;2023-09-07T02:04:24;8.20;;;5.10;;
8714;SDS011;4394;51.208;8.904;2023-09-07T02:07:12;5.53;;;4.50;;
8714;SDS011;4394;51.208;8.904;2023-09-07T02:10:01;5.70;;;5.13;;
8714;SDS011;4394;51.208;8.904;2023-09-07T02:12:51;5.80;;;5.30;;
8714;SDS011;4394;51.208;8.904;2023-09-07T02:15:39;5.27;;;4.17;;
8714;SDS011;4394;51.208;8.904;2023-09-07T02:18:27;5.67;;;4.43;;
8714;SDS011;4394;51.208;8.904;2023-09-07T02:21:16;5.13;;;4.53;;
8714;SDS011;4394;51.208;8.904;2023-09-07T02:24:05;6.50;;;4.90;;
8714;SDS011;4394;51.208;8.904;2023-09-07T02:26:53;5.97;;;5.30;;
8714;SDS011;4394;51.208;8.904;2023-09-07T02:29:42;6.70;;;4.97;;
8714;SDS011;4394;51.208;8.904;2023-09-07T02:32:31;6.67;;;5.00;;
8714;SDS011;4394;51.208;8.904;2023-09-07T02:35:20;5.80;;;4.83;;
8714;SDS011;4394;51.208;8.904;2023-09-07T02:38:08;6.00;;;5.40;;
8714;SDS011;4394;51.208;8.904;2023-09-07T02:40:57;7.87;;;5.10;;
8714;SDS011;4394;51.208;8.904;2023-09-07T02:43:45;7.83;;;5.17;;
8714;SDS011;4394;51.208;8.904;2023-09-07T02:46:34;6.40;;;5.30;;
8714;SDS011;4394;51.208;8.904;2023-09-07T02:49:22;6.73;;;5.37;;
8714;SDS011;4394;51.208;8.904;2023-09-07T02:52:10;8.70;;;5.37;;
8714;SDS011;4394;51.208;8.904;2023-09-07T02:54:58;5.63;;;5.13;;
8714;SDS011;4394;51.208;8.904;2023-09-07T02:57:46;6.53;;;5.43;;
8714;SDS011;4394;51.208;8.904;2023-09-07T03:00:34;5.60;;;5.00;;
8714;SDS011;4394;51.208;8.904;2023-09-07T03:03:29;6.40;;;4.87;;
8714;SDS011;4394;51.208;8.904;2023-09-07T03:06:18;6.00;;;5.40;;
8714;SDS011;4394;51.208;8.904;2023-09-07T03:09:06;9.53;;;5.60;;
8714;SDS011;4394;51.208;8.904;2023-09-07T03:11:55;5.57;;;4.80;;
8714;SDS011;4394;51.208;8.904;2023-09-07T03:14:43;5.67;;;5.03;;
8714;SDS011;4394;51.208;8.904;2023-09-07T03:17:31;6.27;;;4.93;;
8714;SDS011;4394;51.208;8.904;2023-09-07T03:20:21;5.50;;;4.90;;
8714;SDS011;4394;51.208;8.904;2023-09-07T03:23:09;8.93;;;5.40;;
8714;SDS011;4394;51.208;8.904;2023-09-07T03:25:57;6.07;;;5.00;;
8714;SDS011;4394;51.208;8.904;2023-09-07T03:28:45;7.40;;;5.30;;
8714;SDS011;4394;51.208;8.904;2023-09-07T03:31:33;7.10;;;4.67;;
8714;SDS011;4394;51.208;8.904;2023-09-07T03:34:22;6.43;;;4.90;;
8714;SDS011;4394;51.208;8.904;2023-09-07T03:37:11;6.47;;;4.60;;
8714;SDS011;4394;51.208;8.904;2023-09-07T03:39:59;6.38;;;5.55;;
8714;SDS011;4394;51.208;8.904;2023-09-07T03:42:48;7.23;;;5.37;;
8714;SDS011;4394;51.208;8.904;2023-09-07T03:45:37;6.30;;;5.13;;
8714;SDS011;4394;51.208;8.904;2023-09-07T03:48:25;7.80;;;5.30;;
8714;SDS011;4394;51.208;8.904;2023-09-07T03:51:13;7.50;;;5.67;;
8714;SDS011;4394;51.208;8.904;2023-09-07T03:54:02;7.97;;;5.33;;
8714;SDS011;4394;51.208;8.904;2023-09-07T03:56:51;7.20;;;5.50;;
8714;SDS011;4394;51.208;8.904;2023-09-07T03:59:40;5.83;;;5.20;;
8714;SDS011;4394;51.208;8.904;2023-09-07T04:02:28;6.50;;;5.47;;
8714;SDS011;4394;51.208;8.904;2023-09-07T04:05:18;6.80;;;5.40;;
8714;SDS011;4394;51.208;8.904;2023-09-07T04:08:06;7.73;;;5.20;;
8714;SDS011;4394;51.208;8.904;2023-09-07T04:10:55;6.80;;;4.87;;
8714;SDS011;4394;51.208;8.904;2023-09-07T04:13:43;7.40;;;5.10;;
8714;SDS011;4394;51.208;8.904;2023-09-07T04:16:32;10.17;;;5.30;;
8714;SDS011;4394;51.208;8.904;2023-09-07T04:19:20;7.93;;;5.50;;
8714;SDS011;4394;51.208;8.904;2023-09-07T04:22:08;5.73;;;5.17;;
8714;SDS011;4394;51.208;8.904;2023-09-07T04:24:56;8.07;;;5.90;;
8714;SDS011;4394;51.208;8.904;2023-09-07T04:27:45;9.33;;;5.60;;
8714;SDS011;4394;51.208;8.904;2023-09-07T04:30:36;7.07;;;5.83;;
8714;SDS011;4394;51.208;8.904;2023-09-07T04:33:25;6.97;;;5.30;;
8714;SDS011;4394;51.208;8.904;2023-09-07T04:36:13;8.73;;;5.93;;
8714;SDS011;4394;51.208;8.904;2023-09-07T04:39:02;6.93;;;5.90;;
8714;SDS011;4394;51.208;8.904;2023-09-07T04:41:50;6.37;;;5.30;;
8714;SDS011;4394;51.208;8.904;2023-09-07T04:44:41;7.07;;;5.07;;
8714;SDS011;4394;51.208;8.904;2023-09-07T04:47:29;5.90;;;5.30;;
8714;SDS011;4394;51.208;8.904;2023-09-07T04:50:17;8.23;;;5.67;;
8714;SDS011;4394;51.208;8.904;2023-09-07T04:53:05;6.63;;;5.47;;
8714;SDS011;4394;51.208;8.904;2023-09-07T04:55:54;6.40;;;5.17;;
8714;SDS011;4394;51.208;8.904;2023-09-07T04:58:42;6.47;;;5.60;;
8714;SDS011;4394;51.208;8.904;2023-09-07T05:01:31;7.63;;;5.50;;
8714;SDS011;4394;51.208;8.904;2023-09-07T05:04:19;6.80;;;5.63;;
8714;SDS011;4394;51.208;8.904;2023-09-07T05:07:08;5.33;;;4.83;;
8714;SDS011;4394;51.208;8.904;2023-09-07T05:09:56;5.73;;;5.13;;
8714;SDS011;4394;51.208;8.904;2023-09-07T05:12:44;8.83;;;5.63;;
8714;SDS011;4394;51.208;8.904;2023-09-07T05:15:33;6.60;;;5.50;;
8714;SDS011;4394;51.208;8.904;2023-09-07T05:18:22;6.83;;;5.27;;
8714;SDS011;4394;51.208;8.904;2023-09-07T05:21:11;6.43;;;5.30;;
8714;SDS011;4394;51.208;8.904;2023-09-07T05:24:00;6.83;;;5.47;;
8714;SDS011;4394;51.208;8.904;2023-09-07T05:26:49;7.10;;;5.53;;
8714;SDS011;4394;51.208;8.904;2023-09-07T05:29:37;6.67;;;5.70;;
8714;SDS011;4394;51.208;8.904;2023-09-07T05:32:25;7.57;;;5.30;;
8714;SDS011;4394;51.208;8.904;2023-09-07T05:35:14;6.60;;;5.43;;
8714;SDS011;4394;51.208;8.904;2023-09-07T05:38:03;6.20;;;5.60;;
8714;SDS011;4394;51.208;8.904;2023-09-07T05:40:52;7.47;;;5.00;;
8714;SDS011;4394;51.208;8.904;2023-09-07T05:43:41;5.87;;;5.27;;
8714;SDS011;4394;51.208;8.904;2023-09-07T05:46:29;6.33;;;4.83;;
8714;SDS011;4394;51.208;8.904;2023-09-07T05:49:17;7.03;;;5.30;;
8714;SDS011;4394;51.208;8.904;2023-09-07T05:52:07;5.63;;;4.97;;
8714;SDS011;4394;51.208;8.904;2023-09-07T05:54:55;7.23;;;5.07;;
8714;SDS011;4394;51.208;8.904;2023-09-07T05:57:43;7.07;;;5.17;;
8714;SDS011;4394;51.208;8.904;2023-09-07T06:00:31;5.77;;;4.97;;
8714;SDS011;4394;51.208;8.904;2023-09-07T06:03:21;6.00;;;5.00;;
8714;SDS011;4394;51.208;8.904;2023-09-07T06:06:09;8.20;;;5.33;;
8714;SDS011;4394;51.208;8.904;2023-09-07T06:08:58;5.77;;;4.63;;
8714;SDS011;4394;51.208;8.904;2023-09-07T06:11:46;6.23;;;5.23;;
8714;SDS011;4394;51.208;8.904;2023-09-07T06:14:35;6.17;;;5.53;;
8714;SDS011;4394;51.208;8.904;2023-09-07T06:17:23;7.40;;;5.07;;
8714;SDS011;4394;51.208;8.904;2023-09-07T06:20:11;6.00;;;5.13;;
8714;SDS011;4394;51.208;8.904;2023-09-07T06:23:00;5.73;;;5.07;;
8714;SDS011;4394;51.208;8.904;2023-09-07T06:25:49;5.97;;;5.10;;
8714;SDS011;4394;51.208;8.904;2023-09-07T06:28:38;7.70;;;4.73;;
8714;SDS011;4394;51.208;8.904;2023-09-07T06:31:26;5.60;;;5.03;;
8714;SDS011;4394;51.208;8.904;2023-09-07T06:34:15;6.77;;;5.07;;
8714;SDS011;4394;51.208;8.904;2023-09-07T06:37:04;5.82;;;5.20;;
8714;SDS011;4394;51.208;8.904;2023-09-07T06:39:52;6.07;;;5.03;;
8714;SDS011;4394;51.208;8.904;2023-09-07T06:42:42;7.37;;;5.10;;
8714;SDS011;4394;51.208;8.904;2023-09-07T06:45:30;6.73;;;5.10;;
8714;SDS011;4394;51.208;8.904;2023-09-07T06:48:21;10.53;;;5.33;;
8714;SDS011;4394;51.208;8.904;2023-09-07T06:51:10;6.87;;;4.73;;
8714;SDS011;4394;51.208;8.904;2023-09-07T06:53:59;5.40;;;4.43;;
8714;SDS011;4394;51.208;8.904;2023-09-07T06:56:47;6.67;;;4.77;;
8714;SDS011;4394;51.208;8.904;2023-09-07T06:59:37;5.40;;;4.90;;
8714;SDS011;4394;51.208;8.904;2023-09-07T07:02:25;5.17;;;4.67;;
8714;SDS011;4394;51.208;8.904;2023-09-07T07:05:13;6.03;;;5.30;;
8714;SDS011;4394;51.208;8.904;2023-09-07T07:08:01;6.67;;;5.17;;
8714;SDS011;4394;51.208;8.904;2023-09-07T07:10:49;6.43;;;5.00;;
8714;SDS011;4394;51.208;8.904;2023-09-07T07:13:38;5.63;;;5.10;;
8714;SDS011;4394;51.208;8.904;2023-09-07T07:16:27;6.03;;;4.97;;
8714;SDS011;4394;51.208;8.904;2023-09-07T07:19:16;7.00;;;4.60;;
8714;SDS011;4394;51.208;8.904;2023-09-07T07:22:20;6.63;;;4.80;;
8714;SDS011;4394;51.208;8.904;2023-09-07T07:25:08;5.70;;;5.00;;
8714;SDS011;4394;51.208;8.904;2023-09-07T07:27:57;6.40;;;4.87;;
8714;SDS011;4394;51.208;8.904;2023-09-07T07:30:46;6.60;;;4.73;;
8714;SDS011;4394;51.208;8.904;2023-09-07T07:33:36;6.17;;;4.93;;
8714;SDS011;4394;51.208;8.904;2023-09-07T07:36:24;6.68;;;5.30;;
8714;SDS011;4394;51.208;8.904;2023-09-07T07:39:12;5.27;;;4.67;;
8714;SDS011;4394;51.208;8.904;2023-09-07T07:42:02;6.60;;;5.00;;
8714;SDS011;4394;51.208;8.904;2023-09-07T07:44:52;4.77;;;4.33;;
8714;SDS011;4394;51.208;8.904;2023-09-07T07:47:40;7.20;;;4.80;;
8714;SDS011;4394;51.208;8.904;2023-09-07T07:50:30;7.00;;;5.10;;
8714;SDS011;4394;51.208;8.904;2023-09-07T07:53:18;5.23;;;4.70;;
8714;SDS011;4394;51.208;8.904;2023-09-07T07:56:13;5.60;;;4.80;;
8714;SDS011;4394;51.208;8.904;2023-09-07T07:59:03;5.63;;;4.90;;
8714;SDS011;4394;51.208;8.904;2023-09-07T08:01:51;5.37;;;4.87;;
8714;SDS011;4394;51.208;8.904;2023-09-07T08:04:39;7.17;;;4.80;;
8714;SDS011;4394;51.208;8.904;2023-09-07T08:07:29;5.37;;;4.87;;
8714;SDS011;4394;51.208;8.904;2023-09-07T08:10:17;5.37;;;4.87;;
8714;SDS011;4394;51.208;8.904;2023-09-07T08:13:05;6.03;;;4.80;;
8714;SDS011;4394;51.208;8.904;2023-09-07T08:15:54;5.63;;;4.97;;
8714;SDS011;4394;51.208;8.904;2023-09-07T08:18:42;5.43;;;4.93;;
8714;SDS011;4394;51.208;8.904;2023-09-07T08:21:30;6.72;;;5.20;;
8714;SDS011;4394;51.208;8.904;2023-09-07T08:24:20;6.23;;;5.10;;
8714;SDS011;4394;51.208;8.904;2023-09-07T08:27:08;7.40;;;5.60;;
8714;SDS011;4394;51.208;8.904;2023-09-07T08:29:57;6.83;;;5.07;;
8714;SDS011;4394;51.208;8.904;2023-09-07T08:32:45;6.30;;;4.90;;
8714;SDS011;4394;51.208;8.904;2023-09-07T08:35:34;6.67;;;4.90;;
8714;SDS011;4394;51.208;8.904;2023-09-07T08:38:24;4.87;;;4.37;;
8714;SDS011;4394;51.208;8.904;2023-09-07T08:41:16;5.03;;;4.53;;
8714;SDS011;4394;51.208;8.904;2023-09-07T08:44:04;5.47;;;4.63;;
8714;SDS011;4394;51.208;8.904;2023-09-07T08:46:55;8.70;;;5.20;;
8714;SDS011;4394;51.208;8.904;2023-09-07T08:49:44;6.67;;;4.80;;
8714;SDS011;4394;51.208;8.904;2023-09-07T08:52:34;5.83;;;5.17;;
8714;SDS011;4394;51.208;8.904;2023-09-07T08:55:23;7.57;;;5.10;;
8714;SDS011;4394;51.208;8.904;2023-09-07T08:58:13;5.90;;;4.73;;
8714;SDS011;4394;51.208;8.904;2023-09-07T09:01:01;5.00;;;4.50;;
8714;SDS011;4394;51.208;8.904;2023-09-07T09:03:53;7.43;;;4.80;;
8714;SDS011;4394;51.208;8.904;2023-09-07T09:06:41;5.23;;;4.73;;
8714;SDS011;4394;51.208;8.904;2023-09-07T09:09:30;5.83;;;4.80;;
8714;SDS011;4394;51.208;8.904;2023-09-07T09:12:18;7.00;;;4.70;;
8714;SDS011;4394;51.208;8.904;2023-09-07T09:15:08;5.07;;;4.37;;
8714;SDS011;4394;51.208;8.904;2023-09-07T09:17:57;5.53;;;5.03;;
8714;SDS011;4394;51.208;8.904;2023-09-07T09:20:45;5.13;;;4.60;;
8714;SDS011;4394;51.208;8.904;2023-09-07T09:23:33;6.70;;;5.00;;
8714;SDS011;4394;51.208;8.904;2023-09-07T09:26:22;5.70;;;4.50;;
8714;SDS011;4394;51.208;8.904;2023-09-07T09:29:16;5.37;;;4.60;;
8714;SDS011;4394;51.208;8.904;2023-09-07T09:32:06;5.23;;;4.53;;
8714;SDS011;4394;51.208;8.904;2023-09-07T09:34:54;4.40;;;4.00;;
8714;SDS011;4394;51.208;8.904;2023-09-07T09:37:43;5.73;;;4.80;;
8714;SDS011;4394;51.208;8.904;2023-09-07T09:40:32;6.00;;;4.80;;
8714;SDS011;4394;51.208;8.904;2023-09-07T09:43:21;5.87;;;5.00;;
8714;SDS011;4394;51.208;8.904;2023-09-07T09:46:09;5.33;;;4.80;;
8714;SDS011;4394;51.208;8.904;2023-09-07T09:49:01;4.70;;;4.30;;
8714;SDS011;4394;51.208;8.904;2023-09-07T09:51:51;5.30;;;4.80;;
8714;SDS011;4394;51.208;8.904;2023-09-07T09:54:39;5.87;;;4.63;;
8714;SDS011;4394;51.208;8.904;2023-09-07T09:57:27;7.20;;;4.57;;
8714;SDS011;4394;51.208;8.904;2023-09-07T10:00:17;7.93;;;4.37;;
8714;SDS011;4394;51.208;8.904;2023-09-07T10:03:13;5.17;;;4.30;;
8714;SDS011;4394;51.208;8.904;2023-09-07T10:06:09;5.27;;;4.50;;
8714;SDS011;4394;51.208;8.904;2023-09-07T10:08:59;4.87;;;4.47;;
8714;SDS011;4394;51.208;8.904;2023-09-07T10:11:53;4.80;;;4.30;;
8714;SDS011;4394;51.208;8.904;2023-09-07T10:14:42;6.07;;;4.77;;
8714;SDS011;4394;51.208;8.904;2023-09-07T10:17:31;5.83;;;5.13;;
8714;SDS011;4394;51.208;8.904;2023-09-07T10:20:19;8.63;;;4.70;;
8714;SDS011;4394;51.208;8.904;2023-09-07T10:23:12;5.70;;;3.90;;
8714;SDS011;4394;51.208;8.904;2023-09-07T10:26:00;4.90;;;4.40;;
8714;SDS011;4394;51.208;8.904;2023-09-07T10:28:59;4.88;;;4.47;;
8714;SDS011;4394;51.208;8.904;2023-09-07T10:31:50;6.87;;;4.50;;
8714;SDS011;4394;51.208;8.904;2023-09-07T10:34:40;7.40;;;4.68;;
8714;SDS011;4394;51.208;8.904;2023-09-07T10:37:30;6.00;;;4.80;;
8714;SDS011;4394;51.208;8.904;2023-09-07T10:40:20;6.77;;;4.90;;
8714;SDS011;4394;51.208;8.904;2023-09-07T10:43:09;8.38;;;5.00;;
8714;SDS011;4394;51.208;8.904;2023-09-07T10:45:57;5.07;;;4.50;;
8714;SDS011;4394;51.208;8.904;2023-09-07T10:48:48;6.13;;;5.00;;
8714;SDS011;4394;51.208;8.904;2023-09-07T10:51:41;7.93;;;4.73;;
8714;SDS011;4394;51.208;8.904;2023-09-07T10:54:31;5.72;;;4.55;;
8714;SDS011;4394;51.208;8.904;2023-09-07T10:57:21;6.28;;;5.00;;
8714;SDS011;4394;51.208;8.904;2023-09-07T11:00:10;5.63;;;4.50;;
8714;SDS011;4394;51.208;8.904;2023-09-07T11:03:05;5.43;;;4.28;;
8714;SDS011;4394;51.208;8.904;2023-09-07T11:05:55;4.95;;;4.47;;
8714;SDS011;4394;51.208;8.904;2023-09-07T11:08:47;4.80;;;4.32;;
8714;SDS011;4394;51.208;8.904;2023-09-07T11:11:36;4.82;;;4.00;;
8714;SDS011;4394;51.208;8.904;2023-09-07T11:14:28;4.93;;;3.97;;
8714;SDS011;4394;51.208;8.904;2023-09-07T11:17:17;4.65;;;4.13;;
8714;SDS011;4394;51.208;8.904;2023-09-07T11:20:06;4.57;;;3.88;;
8714;SDS011;4394;51.208;8.904;2023-09-07T11:22:56;4.50;;;4.10;;
8714;SDS011;4394;51.208;8.904;2023-09-07T11:25:51;4.82;;;3.67;;
8714;SDS011;4394;51.208;8.904;2023-09-07T11:28:39;4.55;;;4.10;;
8714;SDS011;4394;51.208;8.904;2023-09-07T11:31:29;4.88;;;4.47;;
8714;SDS011;4394;51.208;8.904;2023-09-07T11:34:17;5.18;;;4.25;;
8714;SDS011;4394;51.208;8.904;2023-09-07T11:37:05;4.65;;;3.90;;
8714;SDS011;4394;51.208;8.904;2023-09-07T11:39:53;5.55;;;4.10;;
8714;SDS011;4394;51.208;8.904;2023-09-07T11:42:42;5.88;;;3.95;;
8714;SDS011;4394;51.208;8.904;2023-09-07T11:45:31;4.40;;;3.90;;
8714;SDS011;4394;51.208;8.904;2023-09-07T11:48:21;5.07;;;4.18;;
8714;SDS011;4394;51.208;8.904;2023-09-07T11:51:09;4.90;;;4.10;;
8714;SDS011;4394;51.208;8.904;2023-09-07T11:53:57;4.75;;;4.28;;
8714;SDS011;4394;51.208;8.904;2023-09-07T11:56:45;5.50;;;4.60;;
8714;SDS011;4394;51.208;8.904;2023-09-07T11:59:33;7.22;;;4.00;;
8714;SDS011;4394;51.208;8.904;2023-09-07T12:02:41;7.00;;;4.30;;
8714;SDS011;4394;51.208;8.904;2023-09-07T12:05:31;4.78;;;4.25;;
8714;SDS011;4394;51.208;8.904;2023-09-07T12:08:20;4.40;;;3.92;;
8714;SDS011;4394;51.208;8.904;2023-09-07T12:11:08;6.68;;;4.25;;
8714;SDS011;4394;51.208;8.904;2023-09-07T12:13:56;5.43;;;3.92;;
8714;SDS011;4394;51.208;8.904;2023-09-07T12:16:44;4.40;;;4.05;;
8714;SDS011;4394;51.208;8.904;2023-09-07T12:19:33;4.47;;;4.07;;
8714;SDS011;4394;51.208;8.904;2023-09-07T12:22:22;4.88;;;4.30;;
8714;SDS011;4394;51.208;8.904;2023-09-07T12:25:10;4.63;;;3.72;;
8714;SDS011;4394;51.208;8.904;2023-09-07T12:28:01;4.85;;;3.97;;
8714;SDS011;4394;51.208;8.904;2023-09-07T12:30:49;4.80;;;4.30;;
8714;SDS011;4394;51.208;8.904;2023-09-07T12:33:38;6.85;;;4.18;;
8714;SDS011;4394;51.208;8.904;2023-09-07T12:36:26;4.88;;;4.35;;
8714;SDS011;4394;51.208;8.904;2023-09-07T12:39:17;4.90;;;4.22;;
8714;SDS011;4394;51.208;8.904;2023-09-07T12:42:05;4.72;;;4.15;;
8714;SDS011;4394;51.208;8.904;2023-09-07T12:44:53;4.55;;;4.10;;
8714;SDS011;4394;51.208;8.904;2023-09-07T12:47:42;4.78;;;3.92;;
8714;SDS011;4394;51.208;8.904;2023-09-07T12:50:30;4.53;;;3.65;;
8714;SDS011;4394;51.208;8.904;2023-09-07T12:53:18;5.03;;;3.70;;
8714;SDS011;4394;51.208;8.904;2023-09-07T12:56:07;4.18;;;3.78;;
8714;SDS011;4394;51.208;8.904;2023-09-07T12:58:55;5.82;;;4.18;;
8714;SDS011;4394;51.208;8.904;2023-09-07T13:01:45;4.30;;;3.97;;
8714;SDS011;4394;51.208;8.904;2023-09-07T13:04:34;5.43;;;3.95;;
8714;SDS011;4394;51.208;8.904;2023-09-07T13:07:22;5.00;;;3.95;;
8714;SDS011;4394;51.208;8.904;2023-09-07T13:10:10;5.55;;;4.30;;
8714;SDS011;4394;51.208;8.904;2023-09-07T13:13:00;7.15;;;4.35;;
8714;SDS011;4394;51.208;8.904;2023-09-07T13:15:48;4.90;;;4.03;;
8714;SDS011;4394;51.208;8.904;2023-09-07T13:18:36;5.45;;;3.95;;
8714;SDS011;4394;51.208;8.904;2023-09-07T13:21:24;4.53;;;4.13;;
8714;SDS011;4394;51.208;8.904;2023-09-07T13:24:12;6.10;;;3.95;;
8714;SDS011;4394;51.208;8.904;2023-09-07T13:27:00;5.28;;;3.78;;
8714;SDS011;4394;51.208;8.904;2023-09-07T13:29:51;4.95;;;3.63;;
8714;SDS011;4394;51.208;8.904;2023-09-07T13:32:39;4.68;;;3.72;;
8714;SDS011;4394;51.208;8.904;2023-09-07T13:35:27;4.43;;;3.50;;
8714;SDS011;4394;51.208;8.904;2023-09-07T13:38:15;4.18;;;3.75;;
8714;SDS011;4394;51.208;8.904;2023-09-07T13:41:03;4.10;;;3.72;;
8714;SDS011;4394;51.208;8.904;2023-09-07T13:43:52;4.30;;;3.50;;
8714;SDS011;4394;51.208;8.904;2023-09-07T13:46:42;4.70;;;3.60;;
8714;SDS011;4394;51.208;8.904;2023-09-07T13:49:31;4.38;;;3.60;;
8714;SDS011;4394;51.208;8.904;2023-09-07T13:52:19;4.68;;;3.70;;
8714;SDS011;4394;51.208;8.904;2023-09-07T13:55:07;4.40;;;3.30;;
8714;SDS011;4394;51.208;8.904;2023-09-07T13:57:56;4.35;;;3.47;;
8714;SDS011;4394;51.208;8.904;2023-09-07T14:00:44;3.90;;;3.50;;
8714;SDS011;4394;51.208;8.904;2023-09-07T14:03:34;3.80;;;3.50;;
8714;SDS011;4394;51.208;8.904;2023-09-07T14:06:23;3.35;;;3.00;;
8714;SDS011;4394;51.208;8.904;2023-09-07T14:09:11;6.40;;;3.70;;
8714;SDS011;4394;51.208;8.904;2023-09-07T14:12:00;5.45;;;3.15;;
8714;SDS011;4394;51.208;8.904;2023-09-07T14:14:48;4.68;;;3.30;;
8714;SDS011;4394;51.208;8.904;2023-09-07T14:17:37;3.35;;;3.08;;
8714;SDS011;4394;51.208;8.904;2023-09-07T14:20:26;3.50;;;3.05;;
8714;SDS011;4394;51.208;8.904;2023-09-07T14:23:14;3.38;;;3.08;;
8714;SDS011;4394;51.208;8.904;2023-09-07T14:26:02;3.50;;;3.25;;
8714;SDS011;4394;51.208;8.904;2023-09-07T14:28:51;3.88;;;3.22;;
8714;SDS011;4394;51.208;8.904;2023-09-07T14:31:40;3.53;;;3.22;;
8714;SDS011;4394;51.208;8.904;2023-09-07T14:34:29;3.50;;;3.20;;
8714;SDS011;4394;51.208;8.904;2023-09-07T14:37:19;5.40;;;3.50;;
8714;SDS011;4394;51.208;8.904;2023-09-07T14:40:07;3.88;;;3.50;;
8714;SDS011;4394;51.208;8.904;2023-09-07T14:42:56;4.10;;;3.67;;
8714;SDS011;4394;51.208;8.904;2023-09-07T14:45:44;4.20;;;3.50;;
8714;SDS011;4394;51.208;8.904;2023-09-07T14:48:33;5.10;;;4.28;;
8714;SDS011;4394;51.208;8.904;2023-09-07T14:51:21;4.88;;;3.85;;
8714;SDS011;4394;51.208;8.904;2023-09-07T14:54:10;4.45;;;3.60;;
8714;SDS011;4394;51.208;8.904;2023-09-07T14:56:58;3.80;;;3.40;;
8714;SDS011;4394;51.208;8.904;2023-09-07T14:59:46;5.22;;;3.63;;
8714;SDS011;4394;51.208;8.904;2023-09-07T15:02:34;4.18;;;3.50;;
8714;SDS011;4394;51.208;8.904;2023-09-07T15:05:23;4.85;;;3.80;;
8714;SDS011;4394;51.208;8.904;2023-09-07T15:08:11;4.68;;;3.70;;
8714;SDS011;4394;51.208;8.904;2023-09-07T15:11:01;4.88;;;3.78;;
8714;SDS011;4394;51.208;8.904;2023-09-07T15:13:49;4.88;;;4.07;;
8714;SDS011;4394;51.208;8.904;2023-09-07T15:16:39;4.00;;;3.63;;
8714;SDS011;4394;51.208;8.904;2023-09-07T15:19:27;5.10;;;4.00;;
8714;SDS011;4394;51.208;8.904;2023-09-07T15:22:16;4.07;;;3.55;;
8714;SDS011;4394;51.208;8.904;2023-09-07T15:25:04;3.90;;;3.60;;
8714;SDS011;4394;51.208;8.904;2023-09-07T15:27:54;4.28;;;3.88;;
8714;SDS011;4394;51.208;8.904;2023-09-07T15:30:43;5.00;;;3.85;;
8714;SDS011;4394;51.208;8.904;2023-09-07T15:33:31;3.95;;;3.53;;
8714;SDS011;4394;51.208;8.904;2023-09-07T15:36:19;5.47;;;3.85;;
8714;SDS011;4394;51.208;8.904;2023-09-07T15:39:07;4.65;;;4.25;;
8714;SDS011;4394;51.208;8.904;2023-09-07T15:41:55;5.80;;;3.92;;
8714;SDS011;4394;51.208;8.904;2023-09-07T15:44:45;4.03;;;3.70;;
8714;SDS011;4394;51.208;8.904;2023-09-07T15:47:35;5.35;;;3.80;;
8714;SDS011;4394;51.208;8.904;2023-09-07T15:50:23;4.15;;;3.78;;
8714;SDS011;4394;51.208;8.904;2023-09-07T15:53:11;4.72;;;4.28;;
8714;SDS011;4394;51.208;8.904;2023-09-07T15:56:00;6.35;;;4.32;;
8714;SDS011;4394;51.208;8.904;2023-09-07T15:58:49;4.55;;;4.15;;
8714;SDS011;4394;51.208;8.904;2023-09-07T16:01:38;4.50;;;4.10;;
8714;SDS011;4394;51.208;8.904;2023-09-07T16:04:26;5.35;;;4.32;;
8714;SDS011;4394;51.208;8.904;2023-09-07T16:07:14;6.53;;;4.18;;
8714;SDS011;4394;51.208;8.904;2023-09-07T16:10:02;6.00;;;4.13;;
8714;SDS011;4394;51.208;8.904;2023-09-07T16:12:51;6.43;;;4.40;;
8714;SDS011;4394;51.208;8.904;2023-09-07T16:15:39;6.43;;;4.22;;
8714;SDS011;4394;51.208;8.904;2023-09-07T16:18:28;4.75;;;4.03;;
8714;SDS011;4394;51.208;8.904;2023-09-07T16:21:17;5.00;;;4.50;;
8714;SDS011;4394;51.208;8.904;2023-09-07T16:24:06;5.05;;;4.05;;
8714;SDS011;4394;51.208;8.904;2023-09-07T16:26:57;4.75;;;4.22;;
8714;SDS011;4394;51.208;8.904;2023-09-07T16:29:45;4.55;;;4.20;;
8714;SDS011;4394;51.208;8.904;2023-09-07T16:32:33;5.53;;;4.20;;
8714;SDS011;4394;51.208;8.904;2023-09-07T16:35:23;5.55;;;4.50;;
8714;SDS011;4394;51.208;8.904;2023-09-07T16:38:11;4.57;;;3.92;;
8714;SDS011;4394;51.208;8.904;2023-09-07T16:41:03;5.78;;;4.32;;
8714;SDS011;4394;51.208;8.904;2023-09-07T16:43:51;6.65;;;4.47;;
8714;SDS011;4394;51.208;8.904;2023-09-07T16:46:40;5.60;;;4.22;;
8714;SDS011;4394;51.208;8.904;2023-09-07T16:49:28;5.60;;;4.43;;
8714;SDS011;4394;51.208;8.904;2023-09-07T16:52:18;4.40;;;4.00;;
8714;SDS011;4394;51.208;8.904;2023-09-07T16:55:07;5.78;;;4.38;;
8714;SDS011;4394;51.208;8.904;2023-09-07T16:57:56;4.43;;;4.03;;
8714;SDS011;4394;51.208;8.904;2023-09-07T17:00:44;5.10;;;4.60;;
8714;SDS011;4394;51.208;8.904;2023-09-07T17:03:32;6.22;;;5.18;;
8714;SDS011;4394;51.208;8.904;2023-09-07T17:06:20;4.90;;;4.40;;
8714;SDS011;4394;51.208;8.904;2023-09-07T17:09:10;5.05;;;4.55;;
8714;SDS011;4394;51.208;8.904;2023-09-07T17:11:59;7.43;;;4.72;;
8714;SDS011;4394;51.208;8.904;2023-09-07T17:14:47;5.80;;;5.22;;
8714;SDS011;4394;51.208;8.904;2023-09-07T17:17:35;6.35;;;5.75;;
8714;SDS011;4394;51.208;8.904;2023-09-07T17:20:24;9.73;;;7.75;;
8714;SDS011;4394;51.208;8.904;2023-09-07T17:23:12;7.47;;;6.05;;
8714;SDS011;4394;51.208;8.904;2023-09-07T17:26:02;4.93;;;4.53;;
8714;SDS011;4394;51.208;8.904;2023-09-07T17:28:50;5.70;;;4.93;;